Time;durP1;ratioP1;P1;durP2;ratioP2;P2;SDS_P1;SDS_P2;PMS_P1;PMS_P2;Temp;Humidity;BMP_temperature;BMP_pressure;BME280_temperature;BME280_humidity;BME280_pressure;Samples;Min_cycle;Max_cycle;Signal;HPM_P1;HPM_P2
2022/07/14 00:01:43;;;;;;;3.80;1.75;;;30.40;31.40;;;;;;5970155;29;20860;-75
2022/07/14 00:04:44;;;;;;;2.08;1.40;;;30.40;31.50;;;;;;5963478;29;20483;-75
2022/07/14 00:07:45;;;;;;;4.35;2.67;;;30.40;31.50;;;;;;5966258;29;20029;-74
2022/07/14 00:10:47;;;;;;;3.83;2.15;;;30.40;31.50;;;;;;5960174;29;20042;-74
2022/07/14 00:13:48;;;;;;;2.60;1.80;;;30.30;31.70;;;;;;5990308;29;20044;-75
2022/07/14 00:16:49;;;;;;;2.33;1.55;;;30.30;31.90;;;;;;6014234;29;20129;-76
2022/07/14 00:19:50;;;;;;;3.10;1.90;;;30.30;32.10;;;;;;5998693;29;20037;-75
2022/07/14 00:22:51;;;;;;;8.70;2.25;;;30.30;32.10;;;;;;5994130;29;20431;-74
2022/07/14 00:25:52;;;;;;;2.47;1.65;;;30.30;32.20;;;;;;6014737;29;20524;-74
2022/07/14 00:28:53;;;;;;;3.83;2.08;;;30.30;32.50;;;;;;5996141;29;20041;-73
2022/07/14 00:31:55;;;;;;;4.35;2.28;;;30.20;32.60;;;;;;6024277;29;20376;-75
2022/07/14 00:34:57;;;;;;;2.85;2.38;;;30.20;32.60;;;;;;6025141;29;20065;-75
2022/07/14 00:37:59;;;;;;;12.15;2.72;;;30.20;32.70;;;;;;6008562;29;20419;-74
2022/07/14 00:41:01;;;;;;;4.68;2.78;;;30.20;32.70;;;;;;6008522;29;20033;-75
2022/07/14 00:44:02;;;;;;;8.18;2.85;;;30.10;32.70;;;;;;6007803;29;20056;-75
2022/07/14 00:47:04;;;;;;;8.88;3.10;;;30.10;32.80;;;;;;6004595;29;20022;-75
2022/07/14 00:50:08;;;;;;;7.05;3.70;;;30.00;32.90;;;;;;6007641;29;20031;-75
2022/07/14 00:53:10;;;;;;;9.27;3.50;;;30.00;33.10;;;;;;5964951;29;1364750;-74
2022/07/14 00:56:11;;;;;;;7.78;3.78;;;29.90;33.30;;;;;;6024848;29;20044;-75
2022/07/14 00:59:12;;;;;;;8.15;3.95;;;29.90;33.60;;;;;;6010625;29;20348;-75
2022/07/14 01:02:15;;;;;;;7.60;3.80;;;29.80;33.70;;;;;;6022871;29;20045;-74
2022/07/14 01:05:17;;;;;;;7.50;4.00;;;29.80;34.50;;;;;;6007701;29;20060;-74
2022/07/14 01:08:18;;;;;;;6.13;3.72;;;29.70;34.00;;;;;;6010441;29;20038;-74
2022/07/14 01:11:19;;;;;;;5.97;3.63;;;29.70;34.10;;;;;;6011257;29;20120;-74
2022/07/14 01:14:20;;;;;;;7.85;3.30;;;29.60;34.30;;;;;;6021240;29;20030;-75
2022/07/14 01:17:21;;;;;;;8.13;4.18;;;29.60;34.40;;;;;;6008805;29;20056;-74
2022/07/14 01:20:23;;;;;;;6.38;3.65;;;29.60;34.60;;;;;;6010936;29;20065;-74
2022/07/14 01:23:25;;;;;;;5.63;3.20;;;29.50;34.80;;;;;;6021582;29;20041;-74
2022/07/14 01:26:26;;;;;;;9.75;3.53;;;29.50;34.80;;;;;;6018169;29;20035;-74
2022/07/14 01:29:27;;;;;;;4.05;2.95;;;29.40;35.00;;;;;;6009733;29;20463;-74
2022/07/14 01:32:28;;;;;;;8.45;3.15;;;29.40;35.10;;;;;;6012239;29;20045;-74
2022/07/14 01:35:29;;;;;;;5.25;3.05;;;29.40;35.10;;;;;;6024414;29;20033;-75
2022/07/14 01:38:31;;;;;;;4.10;2.60;;;29.40;35.10;;;;;;6008777;29;20041;-75
2022/07/14 01:41:33;;;;;;;4.10;2.50;;;29.30;35.00;;;;;;6019960;29;20142;-75
2022/07/14 01:44:34;;;;;;;5.38;3.17;;;29.30;35.10;;;;;;6018852;29;20034;-74
2022/07/14 01:47:35;;;;;;;15.80;3.00;;;29.30;35.20;;;;;;6006658;29;20036;-75
2022/07/14 01:50:36;;;;;;;5.07;2.90;;;29.20;35.20;;;;;;6020041;29;20372;-74
2022/07/14 01:53:41;;;;;;;3.03;2.53;;;29.10;35.30;;;;;;6023004;29;20142;-74
2022/07/14 01:56:42;;;;;;;3.63;2.70;;;29.10;36.10;;;;;;6023181;29;20094;-75
2022/07/14 01:59:46;;;;;;;9.05;2.97;;;29.00;36.10;;;;;;6008044;29;20026;-75
2022/07/14 02:02:48;;;;;;;4.28;2.50;;;28.90;35.60;;;;;;6025835;29;20029;-74
2022/07/14 02:05:50;;;;;;;7.15;3.03;;;28.80;35.70;;;;;;6009980;29;20078;-73
2022/07/14 02:08:51;;;;;;;12.15;2.33;;;28.80;35.90;;;;;;6008233;29;20026;-73
2022/07/14 02:12:12;;;;;;;8.32;2.17;;;28.70;35.90;;;;;;6006672;29;20030;-74
2022/07/14 02:15:13;;;;;;;4.38;2.38;;;28.60;35.90;;;;;;6027188;29;20041;-74
2022/07/14 02:18:15;;;;;;;6.03;2.20;;;28.50;35.90;;;;;;6023774;29;20045;-74
2022/07/14 02:21:19;;;;;;;2.92;2.25;;;28.50;36.00;;;;;;6028043;29;20089;-74
2022/07/14 02:24:21;;;;;;;2.78;2.22;;;28.50;36.00;;;;;;6026163;29;20540;-74
2022/07/14 02:27:23;;;;;;;4.18;2.05;;;28.40;36.10;;;;;;6020522;29;20026;-74
2022/07/14 02:30:26;;;;;;;5.85;2.22;;;28.40;36.10;;;;;;6008624;29;20061;-74
2022/07/14 02:33:27;;;;;;;4.05;2.20;;;28.30;36.10;;;;;;6010753;29;20117;-75
2022/07/14 02:36:29;;;;;;;3.42;2.33;;;28.30;36.30;;;;;;6011532;29;20038;-75
2022/07/14 02:39:30;;;;;;;6.32;2.13;;;28.20;36.30;;;;;;6015676;29;20041;-73
2022/07/14 02:42:31;;;;;;;3.60;2.63;;;28.20;36.30;;;;;;6018652;29;20120;-76
2022/07/14 02:45:32;;;;;;;9.23;2.47;;;28.20;36.30;;;;;;6012165;29;20456;-73
2022/07/14 02:48:33;;;;;;;3.20;2.53;;;28.20;36.30;;;;;;6009386;29;20490;-74
2022/07/14 02:51:34;;;;;;;3.17;2.50;;;28.30;36.40;;;;;;6026511;29;20428;-74
2022/07/14 02:54:36;;;;;;;4.35;2.20;;;28.40;36.40;;;;;;6003983;29;20463;-74
2022/07/14 02:57:37;;;;;;;6.95;2.53;;;28.50;36.30;;;;;;6020747;29;20037;-74
2022/07/14 03:00:39;;;;;;;3.92;2.38;;;28.60;36.30;;;;;;6025727;29;20048;-74
2022/07/14 03:03:42;;;;;;;10.93;2.90;;;28.70;36.20;;;;;;6020651;29;20038;-74
2022/07/14 03:06:46;;;;;;;5.57;2.70;;;28.60;36.30;;;;;;6021712;29;20037;-75
2022/07/14 03:09:50;;;;;;;3.17;2.70;;;28.60;36.70;;;;;;6029378;29;20029;-74
2022/07/14 03:12:52;;;;;;;4.47;2.60;;;28.50;37.00;;;;;;6029716;29;20043;-75
2022/07/14 03:15:54;;;;;;;6.15;2.42;;;28.40;37.10;;;;;;6027509;29;20412;-74
2022/07/14 03:18:55;;;;;;;4.68;3.03;;;28.30;37.20;;;;;;6024243;29;20034;-75
2022/07/14 03:21:56;;;;;;;4.38;2.75;;;28.30;37.50;;;;;;6012418;29;20124;-75
2022/07/14 03:24:58;;;;;;;7.53;3.15;;;28.20;37.70;;;;;;6006829;29;20113;-74
2022/07/14 03:27:59;;;;;;;3.78;3.00;;;28.20;38.30;;;;;;6011789;29;20418;-74
2022/07/14 03:31:06;;;;;;;4.07;3.10;;;28.10;38.60;;;;;;6024403;29;20090;-76
2022/07/14 03:34:10;;;;;;;6.55;3.58;;;28.00;39.00;;;;;;6023711;29;20094;-74
2022/07/14 03:37:13;;;;;;;8.48;3.67;;;27.90;39.50;;;;;;6012621;29;20036;-74
2022/07/14 03:40:23;;;;;;;6.82;3.63;;;27.80;40.40;;;;;;6021613;29;20400;-74
2022/07/14 03:43:26;;;;;;;7.07;3.28;;;27.70;40.00;;;;;;6010748;29;20523;-74
2022/07/14 03:46:28;;;;;;;5.18;3.10;;;27.60;40.20;;;;;;6014961;29;20105;-74
2022/07/14 03:49:37;;;;;;;7.57;3.42;;;27.60;40.20;;;;;;6009614;29;20034;-75
2022/07/14 03:52:39;;;;;;;4.78;3.28;;;27.60;40.30;;;;;;6022799;29;20069;-75
2022/07/14 03:55:44;;;;;;;5.70;3.17;;;27.60;40.30;;;;;;6009193;29;20034;-75
2022/07/14 03:58:45;;;;;;;5.10;3.55;;;27.50;40.30;;;;;;6009902;29;20190;-76
2022/07/14 04:01:49;;;;;;;6.90;3.22;;;27.60;40.40;;;;;;6017353;29;20129;-75
2022/07/14 04:04:50;;;;;;;11.13;3.20;;;27.50;40.40;;;;;;6014065;29;20041;-75
2022/07/14 04:07:52;;;;;;;5.53;3.13;;;27.50;40.40;;;;;;6026319;29;20336;-74
2022/07/14 04:10:55;;;;;;;8.35;3.20;;;27.50;40.40;;;;;;6024679;29;20708;-74
2022/07/14 04:13:56;;;;;;;7.00;3.30;;;27.50;40.40;;;;;;6019094;29;20036;-74
2022/07/14 04:16:57;;;;;;;5.25;2.92;;;27.50;40.40;;;;;;5995374;29;20129;-74
2022/07/14 04:19:59;;;;;;;10.90;3.03;;;27.50;40.40;;;;;;6008411;29;20061;-75
2022/07/14 04:23:00;;;;;;;6.07;3.50;;;27.50;40.40;;;;;;6008361;29;20370;-75
2022/07/14 04:26:03;;;;;;;4.57;2.75;;;27.40;40.40;;;;;;6024433;29;20038;-74
2022/07/14 04:29:06;;;;;;;3.13;2.50;;;27.40;40.50;;;;;;6009623;29;20378;-75
2022/07/14 04:32:07;;;;;;;9.82;3.10;;;27.50;40.30;;;;;;6005254;29;20053;-75
2022/07/14 04:35:10;;;;;;;3.90;2.90;;;27.40;40.10;;;;;;6023540;29;20041;-75
2022/07/14 04:38:11;;;;;;;4.03;2.42;;;27.40;40.00;;;;;;6005583;29;20139;-74
2022/07/14 04:41:18;;;;;;;6.13;2.63;;;27.30;40.00;;;;;;6009703;29;20041;-74
2022/07/14 04:44:20;;;;;;;5.43;2.50;;;27.30;40.10;;;;;;6017929;29;20037;-74
2022/07/14 04:47:23;;;;;;;4.32;2.70;;;27.30;40.20;;;;;;6009009;29;20455;-76
2022/07/14 04:53:44;;;;;;;4.55;2.70;;;27.20;40.40;;;;;;6024108;29;20475;-73
2022/07/14 04:57:06;;;;;;;5.15;2.53;;;27.20;40.40;;;;;;6005003;29;20030;-74
2022/07/14 05:00:14;;;;;;;;;;;27.20;40.50;;;;;;6021807;29;20046;-74
2022/07/14 05:03:16;;;;;;;6.63;2.70;;;27.10;40.50;;;;;;6021992;29;19924;-75
2022/07/14 05:06:18;;;;;;;4.95;2.33;;;27.10;40.50;;;;;;6025550;29;20038;-74
2022/07/14 05:09:19;;;;;;;5.45;2.70;;;27.10;40.60;;;;;;6021133;29;20072;-74
2022/07/14 05:12:20;;;;;;;3.83;2.70;;;27.10;40.60;;;;;;6025896;29;20555;-74
2022/07/14 05:15:23;;;;;;;2.95;2.28;;;27.10;40.60;;;;;;6025727;29;20063;-75
2022/07/14 05:18:26;;;;;;;5.82;2.58;;;27.10;40.50;;;;;;6010522;29;20034;-74
2022/07/14 05:21:28;;;;;;;8.75;2.63;;;27.20;40.50;;;;;;6024843;29;20372;-74
2022/07/14 05:24:30;;;;;;;3.97;2.20;;;27.20;40.30;;;;;;6011899;29;20412;-75
2022/07/14 05:27:31;;;;;;;2.92;2.50;;;27.20;40.20;;;;;;5996596;29;20026;-74
2022/07/14 05:30:33;;;;;;;5.15;2.88;;;27.30;40.10;;;;;;6007459;29;20063;-74
2022/07/14 05:33:35;;;;;;;7.05;2.80;;;27.30;40.00;;;;;;5996361;29;20042;-74
2022/07/14 05:36:36;;;;;;;3.40;2.65;;;27.40;39.90;;;;;;6004812;29;20709;-74
2022/07/14 05:39:40;;;;;;;4.40;2.70;;;27.50;39.80;;;;;;6001457;29;20044;-75
2022/07/14 05:42:42;;;;;;;4.15;2.60;;;27.50;39.70;;;;;;6014018;29;20030;-74
2022/07/14 05:45:43;;;;;;;2.83;2.30;;;27.50;39.70;;;;;;5998980;29;20034;-75
2022/07/14 05:48:44;;;;;;;4.00;2.42;;;27.50;39.70;;;;;;6013517;29;20086;-75
2022/07/14 05:51:46;;;;;;;4.68;2.90;;;27.60;39.80;;;;;;5998266;29;20181;-74
2022/07/14 05:54:49;;;;;;;6.88;2.72;;;27.60;39.70;;;;;;6018517;29;20491;-74
2022/07/14 05:57:53;;;;;;;3.28;2.60;;;27.70;39.70;;;;;;6019417;29;20083;-74
2022/07/14 06:00:54;;;;;;;8.05;3.30;;;27.70;39.60;;;;;;6000953;29;20116;-74
2022/07/14 06:03:57;;;;;;;4.97;2.80;;;27.70;39.60;;;;;;6001924;29;20026;-76
2022/07/14 06:06:59;;;;;;;5.28;3.22;;;27.70;39.90;;;;;;5999244;29;20053;-75
2022/07/14 06:10:01;;;;;;;5.35;2.92;;;27.80;40.20;;;;;;6021050;29;20360;-74
2022/07/14 06:13:04;;;;;;;5.70;3.20;;;27.80;40.20;;;;;;6009545;29;20275;-75
2022/07/14 06:16:06;;;;;;;5.88;3.53;;;27.80;40.40;;;;;;6009759;29;20038;-76
2022/07/14 06:19:08;;;;;;;4.82;3.10;;;27.90;40.60;;;;;;5999947;29;20038;-74
2022/07/14 06:22:11;;;;;;;5.53;3.22;;;28.00;40.60;;;;;;6000144;29;20030;-74
2022/07/14 06:25:13;;;;;;;4.68;3.00;;;28.00;40.60;;;;;;6020033;29;20022;-74
2022/07/14 06:28:14;;;;;;;3.45;2.92;;;28.00;40.40;;;;;;6008773;29;20387;-74
2022/07/14 06:31:16;;;;;;;3.97;2.88;;;28.00;40.20;;;;;;6014105;29;20034;-75
2022/07/14 06:34:18;;;;;;;4.05;2.60;;;28.10;40.10;;;;;;6010147;29;20033;-75
2022/07/14 06:37:30;;;;;;;5.78;3.08;;;28.10;40.60;;;;;;6003203;29;20030;-75
2022/07/14 06:40:32;;;;;;;9.65;3.88;;;28.20;39.80;;;;;;6019369;29;20066;-75
2022/07/14 06:43:33;;;;;;;6.07;2.92;;;28.40;39.70;;;;;;6002414;29;20266;-74
2022/07/14 06:46:40;;;;;;;7.50;4.20;;;28.50;39.50;;;;;;5994173;29;20027;-73
2022/07/14 06:49:41;;;;;;;4.93;3.15;;;28.50;39.30;;;;;;6006615;29;20428;-76
2022/07/14 06:52:42;;;;;;;5.88;3.08;;;28.60;39.20;;;;;;6002234;29;20110;-75
2022/07/14 06:55:43;;;;;;;8.23;3.15;;;28.70;39.10;;;;;;5999189;29;20038;-75
2022/07/14 06:58:44;;;;;;;5.80;3.30;;;28.70;38.90;;;;;;6001776;29;20442;-76
2022/07/14 07:01:45;;;;;;;5.25;2.97;;;28.80;38.80;;;;;;6023359;29;20037;-74
2022/07/14 07:06:43;;;;;;;6.80;2.97;;;28.90;38.70;;;;;;6010242;29;20033;-73
2022/07/14 07:08:09;;;;;;;10.32;3.22;;;28.90;38.50;;;;;;6005666;29;20525;-73
2022/07/14 07:11:10;;;;;;;4.35;3.25;;;28.90;38.40;;;;;;6014121;29;20058;-74
2022/07/14 07:14:12;;;;;;;6.47;3.47;;;28.90;38.40;;;;;;6020860;29;20090;-75
2022/07/14 07:17:13;;;;;;;4.60;3.08;;;28.90;38.40;;;;;;6002477;29;20042;-74
2022/07/14 07:20:14;;;;;;;5.63;2.92;;;29.00;39.00;;;;;;6015954;29;20030;-72
2022/07/14 07:23:15;;;;;;;5.50;3.20;;;29.10;38.20;;;;;;6000291;29;20034;-74
2022/07/14 07:26:17;;;;;;;5.63;2.90;;;29.30;38.10;;;;;;6019187;29;20045;-74
2022/07/14 07:29:18;;;;;;;9.48;2.95;;;29.40;37.90;;;;;;5999683;29;20367;-74
2022/07/14 07:32:19;;;;;;;4.97;3.20;;;29.50;37.80;;;;;;6003425;29;20413;-74
2022/07/14 07:35:21;;;;;;;13.35;3.92;;;29.80;37.60;;;;;;6023521;29;20034;-74
2022/07/14 07:38:22;;;;;;;5.78;2.75;;;30.00;37.30;;;;;;6009932;29;20030;-74
2022/07/14 07:41:26;;;;;;;5.70;3.15;;;30.10;37.00;;;;;;6022951;29;20030;-85
2022/07/14 07:44:30;;;;;;;3.75;2.83;;;30.30;36.80;;;;;;6008464;29;20045;-74
2022/07/14 07:47:31;;;;;;;5.75;3.10;;;30.50;36.50;;;;;;5996145;29;20086;-74
2022/07/14 07:50:33;;;;;;;5.78;3.42;;;30.60;36.20;;;;;;6010681;29;20048;-74
2022/07/14 07:53:34;;;;;;;4.63;2.83;;;30.70;35.90;;;;;;6010135;29;20069;-75
2022/07/14 07:56:36;;;;;;;7.45;3.30;;;30.70;35.80;;;;;;6007924;29;20118;-75
2022/07/14 07:59:37;;;;;;;4.43;2.97;;;30.70;35.80;;;;;;6029095;29;20049;-74
2022/07/14 08:02:49;;;;;;;4.78;3.08;;;30.70;35.80;;;;;;6026221;29;20030;-75
2022/07/14 08:05:50;;;;;;;4.32;3.10;;;30.80;35.80;;;;;;6011718;29;20344;-74
2022/07/14 08:08:51;;;;;;;5.55;3.17;;;30.90;35.60;;;;;;6010444;29;20030;-75
2022/07/14 08:11:54;;;;;;;3.75;2.78;;;31.10;35.10;;;;;;6010586;29;20034;-75
2022/07/14 08:14:55;;;;;;;4.13;3.13;;;31.20;34.50;;;;;;6008886;29;20034;-75
2022/07/14 08:17:57;;;;;;;5.95;3.35;;;31.20;34.10;;;;;;5996651;29;20044;-75
2022/07/14 08:20:58;;;;;;;3.60;3.22;;;31.30;34.10;;;;;;6023629;29;20044;-75
2022/07/14 08:23:59;;;;;;;6.90;3.42;;;31.40;34.20;;;;;;6023089;29;20098;-75
2022/07/14 08:27:00;;;;;;;6.10;3.20;;;31.60;34.00;;;;;;6005956;29;20109;-75
2022/07/14 08:30:02;;;;;;;6.57;3.05;;;31.90;33.90;;;;;;6001539;29;20059;-74
2022/07/14 08:33:03;;;;;;;4.30;2.58;;;32.00;33.50;;;;;;6012329;29;20329;-75
2022/07/14 08:36:05;;;;;;;4.00;3.03;;;32.20;33.10;;;;;;6003419;29;20045;-74
2022/07/14 08:39:08;;;;;;;4.07;2.83;;;32.30;32.60;;;;;;6006494;29;20037;-76
2022/07/14 08:42:09;;;;;;;5.15;3.15;;;32.30;32.20;;;;;;5994730;29;20038;-76
2022/07/14 08:45:12;;;;;;;6.60;3.17;;;32.40;32.10;;;;;;6010481;29;20062;-72
2022/07/14 08:48:14;;;;;;;9.13;3.47;;;32.40;32.10;;;;;;6006884;29;20034;-72
2022/07/14 08:51:17;;;;;;;5.28;3.30;;;32.60;32.20;;;;;;6007681;29;20036;-72
2022/07/14 08:54:18;;;;;;;4.43;2.70;;;32.70;32.00;;;;;;6023713;29;20360;-71
2022/07/14 08:57:19;;;;;;;5.65;2.67;;;32.90;31.70;;;;;;6008905;29;20030;-71
2022/07/14 09:00:20;;;;;;;4.30;2.55;;;33.00;31.30;;;;;;5998664;29;20031;-69
2022/07/14 09:03:21;;;;;;;3.78;2.80;;;33.10;30.80;;;;;;6004122;29;20034;-71
2022/07/14 09:06:52;;;;;;;6.25;3.20;;;33.10;30.70;;;;;;6002857;29;20356;-71
2022/07/14 09:10:00;;;;;;;7.13;2.95;;;33.20;30.50;;;;;;6001472;29;20025;-70
2022/07/14 09:13:13;;;;;;;5.80;2.88;;;33.30;30.40;;;;;;6003771;29;20086;-71
2022/07/14 09:16:22;;;;;;;4.78;3.22;;;33.30;30.20;;;;;;6010175;29;20030;-70
2022/07/14 09:19:23;;;;;;;3.80;3.00;;;33.40;30.00;;;;;;6007582;29;20034;-70
2022/07/14 09:22:28;;;;;;;7.53;2.72;;;33.50;30.00;;;;;;6007000;29;20481;-71
2022/07/14 09:25:32;;;;;;;4.95;2.50;;;33.60;29.90;;;;;;6006876;29;20034;-71
2022/07/14 09:28:42;;;;;;;6.90;2.75;;;33.70;29.70;;;;;;6012878;29;20066;-71
2022/07/14 09:31:43;;;;;;;4.03;2.35;;;33.80;29.50;;;;;;6010547;29;20022;-71
2022/07/14 09:34:44;;;;;;;6.57;2.40;;;33.80;29.30;;;;;;6007272;29;20419;-71
2022/07/14 09:37:46;;;;;;;8.02;2.53;;;33.90;29.10;;;;;;6018949;29;20040;-70
2022/07/14 09:40:49;;;;;;;6.13;2.13;;;34.00;28.90;;;;;;6012427;29;20085;-71
2022/07/14 09:44:09;;;;;;;3.13;2.47;;;34.00;28.70;;;;;;6010007;29;20451;-71
2022/07/14 09:47:11;;;;;;;4.70;2.20;;;34.00;28.80;;;;;;6023201;29;20419;-71
2022/07/14 09:50:12;;;;;;;4.97;2.10;;;34.10;28.90;;;;;;6010228;29;20054;-71
2022/07/14 09:53:34;;;;;;;4.25;2.40;;;34.20;28.80;;;;;;6010633;29;20506;-70
2022/07/14 09:56:35;;;;;;;2.88;2.15;;;34.20;28.60;;;;;;6009548;29;20483;-71
2022/07/14 09:59:52;;;;;;;4.18;2.30;;;34.30;28.70;;;;;;6007604;29;20033;-71
2022/07/14 10:02:53;;;;;;;9.80;2.47;;;34.30;28.60;;;;;;6010057;29;20349;-71
2022/07/14 10:05:56;;;;;;;3.17;2.30;;;34.40;28.60;;;;;;6010424;29;20026;-69
2022/07/14 10:08:59;;;;;;;4.55;2.40;;;34.40;28.60;;;;;;6022204;29;20034;-70
2022/07/14 10:12:01;;;;;;;7.10;2.08;;;34.50;29.00;;;;;;6016248;29;20034;-70
2022/07/14 10:15:08;;;;;;;3.42;2.03;;;34.60;28.20;;;;;;6009692;29;20042;-70
2022/07/14 10:18:10;;;;;;;2.30;1.80;;;34.60;27.70;;;;;;6025861;29;20037;-71
2022/07/14 10:21:12;;;;;;;5.82;2.10;;;34.70;27.70;;;;;;6012354;29;20045;-70
2022/07/14 10:24:14;;;;;;;3.40;1.90;;;34.80;27.60;;;;;;6027613;29;20353;-70
2022/07/14 10:27:18;;;;;;;3.92;2.38;;;34.70;27.50;;;;;;6021502;29;20030;-71
2022/07/14 10:30:28;;;;;;;9.68;2.20;;;34.80;27.40;;;;;;6012097;29;20033;-71
2022/07/14 10:33:43;;;;;;;2.60;2.13;;;34.90;27.40;;;;;;6009382;29;20037;-71
2022/07/14 10:37:03;;;;;;;5.13;2.30;;;34.80;27.30;;;;;;6010849;29;20048;-71
2022/07/14 10:40:33;;;;;;;4.28;2.22;;;34.90;27.30;;;;;;6012447;29;20074;-71
2022/07/14 10:44:02;;;;;;;2.75;2.08;;;34.90;27.10;;;;;;6010395;29;20152;-71
2022/07/14 10:47:17;;;;;;;8.52;2.42;;;34.90;27.10;;;;;;6017865;29;20030;-71
2022/07/14 10:50:26;;;;;;;4.00;2.35;;;35.00;27.00;;;;;;6014372;29;20041;-71
2022/07/14 10:53:29;;;;;;;6.38;2.20;;;35.10;27.00;;;;;;6009572;29;20106;-71
2022/07/14 10:56:30;;;;;;;4.97;2.38;;;35.10;27.00;;;;;;6010408;29;20048;-71
2022/07/14 10:59:32;;;;;;;3.05;2.30;;;35.20;26.80;;;;;;6012265;29;20068;-70
2022/07/14 11:02:34;;;;;;;5.90;2.40;;;35.20;26.70;;;;;;6014147;29;20038;-70
2022/07/14 11:05:58;;;;;;;5.65;2.08;;;35.30;26.40;;;;;;6008105;29;20049;-70
2022/07/14 11:09:18;;;;;;;4.97;1.92;;;35.40;26.20;;;;;;6006843;29;20500;-69
2022/07/14 11:12:19;;;;;;;8.50;2.05;;;36.30;25.30;;;;;;6006769;29;20042;-71
2022/07/14 11:15:43;;;;;;;3.67;2.45;;;37.50;24.20;;;;;;6010940;29;20120;-70
2022/07/14 11:18:45;;;;;;;5.82;2.08;;;38.30;23.60;;;;;;6007239;29;20045;-69
2022/07/14 11:22:19;;;;;;;9.77;2.13;;;39.00;23.30;;;;;;6010703;29;20109;-70
2022/07/14 11:25:29;;;;;;;4.97;2.22;;;39.70;22.70;;;;;;5962117;29;20120;-71
2022/07/14 11:28:34;;;;;;;6.60;2.22;;;40.30;22.30;;;;;;5966477;29;20063;-69
2022/07/14 11:31:51;;;;;;;7.60;3.75;;;40.80;21.90;;;;;;5960157;29;20038;-71
2022/07/14 11:38:34;;;;;;;17.92;4.15;;;41.40;21.60;;;;;;5964121;29;20034;-71
2022/07/14 11:41:46;;;;;;;10.18;2.85;;;41.70;21.40;;;;;;5963704;29;20054;-70
2022/07/14 11:44:49;;;;;;;9.80;2.97;;;42.00;21.20;;;;;;5962787;29;20034;-71
2022/07/14 11:47:50;;;;;;;8.70;2.60;;;42.20;21.00;;;;;;5971615;29;20077;-71
2022/07/14 11:50:51;;;;;;;5.75;2.08;;;42.20;20.80;;;;;;5957244;29;20038;-71
2022/07/14 11:53:55;;;;;;;2.05;1.58;;;42.10;20.80;;;;;;5961919;29;20508;-71
2022/07/14 11:57:08;;;;;;;2.33;1.90;;;42.10;20.50;;;;;;5969197;29;20062;-71
2022/07/14 12:00:11;;;;;;;1.60;1.50;;;42.10;20.30;;;;;;5953073;29;20030;-71
2022/07/14 12:03:16;;;;;;;2.00;1.77;;;42.20;20.10;;;;;;6017658;29;20133;-70
2022/07/14 12:06:17;;;;;;;2.00;1.80;;;42.30;19.90;;;;;;6008982;29;20022;-71
2022/07/14 12:09:29;;;;;;;4.65;2.00;;;42.00;19.90;;;;;;6011293;29;20030;-70
2022/07/14 12:12:47;;;;;;;2.33;1.75;;;41.80;20.00;;;;;;6009127;29;20030;-69
2022/07/14 12:15:49;;;;;;;1.73;1.63;;;41.70;20.00;;;;;;6006588;29;20029;-70
2022/07/14 12:18:54;;;;;;;1.75;1.55;;;41.80;19.80;;;;;;6023342;29;20026;-70
2022/07/14 12:22:04;;;;;;;3.63;1.50;;;41.90;19.70;;;;;;6005480;29;20112;-70
2022/07/14 12:25:23;;;;;;;3.97;1.80;;;42.00;19.70;;;;;;6020496;29;20034;-70
2022/07/14 12:28:26;;;;;;;4.45;1.60;;;42.00;19.40;;;;;;6005865;29;21705;-70
2022/07/14 12:31:27;;;;;;;2.63;1.75;;;41.90;19.20;;;;;;6007211;29;20022;-71
2022/07/14 12:34:30;;;;;;;1.95;1.50;;;41.90;19.00;;;;;;6010552;29;20038;-71
2022/07/14 12:37:31;;;;;;;3.17;1.48;;;42.00;18.90;;;;;;6015302;29;20049;-71
2022/07/14 12:40:33;;;;;;;3.83;1.40;;;42.20;18.40;;;;;;6005908;29;20034;-71
2022/07/14 12:43:44;;;;;;;4.75;1.50;;;42.20;18.10;;;;;;6023322;29;20524;-71
2022/07/14 12:46:46;;;;;;;1.55;1.45;;;42.30;18.00;;;;;;6006140;29;20671;-71
2022/07/14 12:49:49;;;;;;;5.68;1.90;;;42.30;17.90;;;;;;6009968;29;20033;-71
2022/07/14 12:52:55;;;;;;;2.42;1.55;;;42.50;17.80;;;;;;6005009;29;20480;-71
2022/07/14 12:55:59;;;;;;;3.45;1.38;;;42.50;18.10;;;;;;6004122;29;20041;-72
2022/07/14 12:59:03;;;;;;;1.65;1.30;;;42.60;17.40;;;;;;6006683;29;20109;-71
2022/07/14 13:02:06;;;;;;;5.88;1.60;;;42.70;17.10;;;;;;6009024;29;20446;-71
2022/07/14 13:05:10;;;;;;;1.70;1.30;;;42.80;16.90;;;;;;6021123;29;20033;-71
2022/07/14 13:08:32;;;;;;;5.30;1.63;;;43.10;16.70;;;;;;6002386;29;22098;-72
2022/07/14 13:11:33;;;;;;;2.30;1.40;;;43.20;16.70;;;;;;6007898;29;20038;-70
2022/07/14 13:14:34;;;;;;;2.17;1.58;;;43.50;16.50;;;;;;6003619;29;20030;-71
2022/07/14 13:17:57;;;;;;;4.57;1.45;;;43.60;16.50;;;;;;6009250;29;20045;-71
2022/07/14 13:20:58;;;;;;;1.67;1.42;;;43.70;16.50;;;;;;6016791;29;20037;-71
2022/07/14 13:23:59;;;;;;;4.10;1.42;;;43.90;16.50;;;;;;6009671;29;20452;-71
2022/07/14 13:27:16;;;;;;;5.05;1.80;;;44.10;16.40;;;;;;6013124;29;20021;-71
2022/07/14 13:30:17;;;;;;;2.03;1.70;;;44.30;16.20;;;;;;6008882;29;20033;-71
2022/07/14 13:33:18;;;;;;;2.20;1.52;;;44.50;16.30;;;;;;6010384;29;20034;-71
2022/07/14 13:36:20;;;;;;;2.65;1.50;;;44.60;16.20;;;;;;6011002;29;20079;-71
2022/07/14 13:39:22;;;;;;;3.10;1.80;;;44.60;16.20;;;;;;6010174;29;20090;-68
2022/07/14 13:42:24;;;;;;;6.90;1.63;;;44.70;16.20;;;;;;6008762;29;20038;-69
2022/07/14 13:45:25;;;;;;;2.65;1.50;;;45.00;16.20;;;;;;6011725;29;20117;-69
2022/07/14 13:48:26;;;;;;;2.30;1.30;;;45.40;15.80;;;;;;6010643;29;20042;-69
2022/07/14 13:54:48;;;;;;;2.22;1.40;;;46.00;14.80;;;;;;6010036;29;20045;-70
2022/07/14 13:57:49;;;;;;;1.45;1.35;;;46.30;14.60;;;;;;6019138;29;20053;-69
2022/07/14 14:00:50;;;;;;;3.03;1.15;;;46.50;14.60;;;;;;6012771;29;20113;-68
2022/07/14 14:03:52;;;;;;;1.30;1.20;;;46.60;14.50;;;;;;6007854;29;20052;-70
2022/07/14 14:06:54;;;;;;;1.95;1.27;;;46.70;14.50;;;;;;6007356;29;20029;-69
2022/07/14 14:09:56;;;;;;;2.30;1.50;;;46.90;14.50;;;;;;6011247;29;20057;-69
2022/07/14 14:12:57;;;;;;;2.35;1.50;;;47.10;14.50;;;;;;6008227;29;20439;-69
2022/07/14 14:16:00;;;;;;;1.90;1.70;;;47.10;14.70;;;;;;6028665;29;20040;-70
2022/07/14 14:19:02;;;;;;;1.50;1.30;;;47.40;14.80;;;;;;6013101;29;20448;-69
2022/07/14 14:22:03;;;;;;;1.60;1.50;;;47.60;14.80;;;;;;6014005;29;20045;-69
2022/07/14 14:25:05;;;;;;;3.38;1.50;;;47.70;14.60;;;;;;6012261;29;20507;-71
2022/07/14 14:28:07;;;;;;;1.58;1.42;;;47.70;14.70;;;;;;6026147;29;20062;-69
2022/07/14 14:31:08;;;;;;;2.67;1.50;;;47.70;14.70;;;;;;6012441;29;20117;-70
2022/07/14 14:34:09;;;;;;;2.15;1.58;;;47.80;14.60;;;;;;6010817;29;20046;-70
2022/07/14 14:37:10;;;;;;;3.13;1.80;;;48.00;14.50;;;;;;6025594;29;20046;-70
2022/07/14 14:40:12;;;;;;;3.78;1.52;;;48.00;14.30;;;;;;6010758;29;20033;-69
2022/07/14 14:43:13;;;;;;;5.10;1.58;;;47.90;14.20;;;;;;6009592;29;20120;-69
2022/07/14 14:46:14;;;;;;;1.58;1.48;;;47.70;14.20;;;;;;6023424;29;20056;-70
2022/07/14 14:49:15;;;;;;;2.65;1.55;;;47.70;14.20;;;;;;6022046;29;20037;-70
2022/07/14 14:52:16;;;;;;;3.22;1.70;;;47.70;14.20;;;;;;6020768;29;20061;-69
2022/07/14 14:55:22;;;;;;;2.53;1.70;;;47.80;14.20;;;;;;6008479;29;20503;-70
2022/07/14 14:58:23;;;;;;;1.60;1.33;;;47.90;14.10;;;;;;6004701;29;20109;-70
2022/07/14 15:01:24;;;;;;;4.93;1.55;;;48.00;14.20;;;;;;6019687;29;20041;-70
2022/07/14 15:04:25;;;;;;;2.30;1.58;;;47.90;14.10;;;;;;6013130;29;20041;-71
2022/07/14 15:07:27;;;;;;;1.98;1.50;;;48.00;14.00;;;;;;6021210;29;20038;-70
2022/07/14 15:10:28;;;;;;;2.08;1.65;;;48.00;14.10;;;;;;6008093;29;20034;-70
2022/07/14 15:13:29;;;;;;;1.88;1.58;;;47.80;14.00;;;;;;6010549;29;20026;-70
2022/07/14 15:16:30;;;;;;;2.95;1.60;;;47.20;14.40;;;;;;6010695;29;20796;-70
2022/07/14 15:19:31;;;;;;;1.40;1.30;;;46.10;15.10;;;;;;6024488;29;20062;-70
2022/07/14 15:22:32;;;;;;;3.60;1.20;;;45.20;15.60;;;;;;6006113;29;20029;-70
2022/07/14 15:25:34;;;;;;;3.50;1.50;;;45.00;15.90;;;;;;6010365;29;20073;-69
2022/07/14 15:28:35;;;;;;;1.55;1.45;;;45.30;15.60;;;;;;6021846;29;20101;-70
2022/07/14 15:31:39;;;;;;;6.20;1.98;;;45.80;15.40;;;;;;6019910;29;20472;-70
2022/07/14 15:34:42;;;;;;;5.72;2.28;;;46.00;15.20;;;;;;6007445;29;20026;-69
2022/07/14 15:37:44;;;;;;;6.97;1.92;;;46.20;15.10;;;;;;6004093;29;20041;-69
2022/07/14 15:44:04;;;;;;;3.85;1.50;;;46.40;14.80;;;;;;6021278;29;20046;-70
2022/07/14 15:47:05;;;;;;;2.15;1.60;;;46.40;14.70;;;;;;6007281;29;20026;-70
2022/07/14 15:50:06;;;;;;;1.90;1.38;;;46.50;14.60;;;;;;6005743;29;20030;-68
2022/07/14 15:53:07;;;;;;;1.75;1.63;;;46.50;14.60;;;;;;6011665;29;20046;-71
2022/07/14 15:56:09;;;;;;;2.30;1.33;;;46.60;14.60;;;;;;6008365;29;20033;-70
2022/07/14 15:59:11;;;;;;;10.13;2.45;;;46.60;14.60;;;;;;6009374;29;20034;-69
2022/07/14 16:02:11;;;;;;;4.55;1.40;;;46.60;14.50;;;;;;6011023;29;20046;-70
2022/07/14 16:05:12;;;;;;;2.00;1.50;;;46.40;14.60;;;;;;6008037;29;20033;-70
2022/07/14 16:08:15;;;;;;;4.00;1.73;;;46.70;15.00;;;;;;6011686;29;20058;-69